sensor_id;sensor_type;location;lat;lon;timestamp;P1;durP1;ratioP1;P2;durP2;ratioP2
21424;SDS011;10873;51.132;16.848;2023-08-21T00:00:19;6.45;;;5.88;;
21424;SDS011;10873;51.132;16.848;2023-08-21T00:03:06;7.38;;;6.25;;
21424;SDS011;10873;51.132;16.848;2023-08-21T00:05:32;6.50;;;5.88;;
21424;SDS011;10873;51.132;16.848;2023-08-21T00:07:58;5.95;;;5.38;;
21424;SDS011;10873;51.132;16.848;2023-08-21T00:10:24;6.95;;;5.80;;
21424;SDS011;10873;51.132;16.848;2023-08-21T00:12:50;6.68;;;6.07;;
21424;SDS011;10873;51.132;16.848;2023-08-21T00:15:16;9.10;;;6.28;;
21424;SDS011;10873;51.132;16.848;2023-08-21T00:17:42;6.80;;;6.07;;
21424;SDS011;10873;51.132;16.848;2023-08-21T00:20:10;6.80;;;6.13;;
21424;SDS011;10873;51.132;16.848;2023-08-21T00:22:37;6.20;;;5.60;;
21424;SDS011;10873;51.132;16.848;2023-08-21T00:25:03;7.10;;;6.25;;
21424;SDS011;10873;51.132;16.848;2023-08-21T00:27:29;6.40;;;5.80;;
21424;SDS011;10873;51.132;16.848;2023-08-21T00:29:55;6.72;;;6.13;;
21424;SDS011;10873;51.132;16.848;2023-08-21T00:32:22;6.40;;;5.80;;
21424;SDS011;10873;51.132;16.848;2023-08-21T00:34:48;6.82;;;6.13;;
21424;SDS011;10873;51.132;16.848;2023-08-21T00:37:16;6.28;;;5.68;;
21424;SDS011;10873;51.132;16.848;2023-08-21T00:39:42;7.13;;;6.22;;
21424;SDS011;10873;51.132;16.848;2023-08-21T00:42:08;7.03;;;6.32;;
21424;SDS011;10873;51.132;16.848;2023-08-21T00:44:34;6.78;;;6.18;;
21424;SDS011;10873;51.132;16.848;2023-08-21T00:47:00;6.25;;;5.65;;
21424;SDS011;10873;51.132;16.848;2023-08-21T00:49:26;6.72;;;5.90;;
21424;SDS011;10873;51.132;16.848;2023-08-21T00:51:52;6.40;;;5.80;;
21424;SDS011;10873;51.132;16.848;2023-08-21T00:54:20;6.47;;;5.88;;
21424;SDS011;10873;51.132;16.848;2023-08-21T00:56:46;6.88;;;6.18;;
21424;SDS011;10873;51.132;16.848;2023-08-21T00:59:13;6.90;;;6.20;;
21424;SDS011;10873;51.132;16.848;2023-08-21T01:01:39;7.10;;;6.40;;
21424;SDS011;10873;51.132;16.848;2023-08-21T01:04:06;6.78;;;6.15;;
21424;SDS011;10873;51.132;16.848;2023-08-21T01:06:33;6.63;;;5.90;;
21424;SDS011;10873;51.132;16.848;2023-08-21T01:09:00;7.03;;;6.30;;
21424;SDS011;10873;51.132;16.848;2023-08-21T01:11:35;6.57;;;5.97;;
21424;SDS011;10873;51.132;16.848;2023-08-21T01:14:09;6.55;;;5.95;;
21424;SDS011;10873;51.132;16.848;2023-08-21T01:16:42;6.88;;;6.13;;
21424;SDS011;10873;51.132;16.848;2023-08-21T01:19:17;6.72;;;5.95;;
21424;SDS011;10873;51.132;16.848;2023-08-21T01:21:50;6.10;;;5.50;;
21424;SDS011;10873;51.132;16.848;2023-08-21T01:24:20;6.32;;;5.78;;
21424;SDS011;10873;51.132;16.848;2023-08-21T01:26:46;6.45;;;5.85;;
21424;SDS011;10873;51.132;16.848;2023-08-21T01:29:12;6.60;;;6.00;;
21424;SDS011;10873;51.132;16.848;2023-08-21T01:31:38;6.10;;;5.50;;
21424;SDS011;10873;51.132;16.848;2023-08-21T01:34:08;6.22;;;5.63;;
21424;SDS011;10873;51.132;16.848;2023-08-21T01:36:36;5.95;;;5.40;;
21424;SDS011;10873;51.132;16.848;2023-08-21T01:39:03;6.68;;;5.97;;
21424;SDS011;10873;51.132;16.848;2023-08-21T01:41:30;6.50;;;5.90;;
21424;SDS011;10873;51.132;16.848;2023-08-21T01:43:56;6.35;;;5.75;;
21424;SDS011;10873;51.132;16.848;2023-08-21T01:46:22;7.53;;;5.88;;
21424;SDS011;10873;51.132;16.848;2023-08-21T01:48:48;6.88;;;6.28;;
21424;SDS011;10873;51.132;16.848;2023-08-21T01:51:14;7.32;;;5.78;;
21424;SDS011;10873;51.132;16.848;2023-08-21T01:53:41;7.13;;;6.00;;
21424;SDS011;10873;51.132;16.848;2023-08-21T01:56:06;8.55;;;5.70;;
21424;SDS011;10873;51.132;16.848;2023-08-21T01:58:34;6.10;;;5.50;;
21424;SDS011;10873;51.132;16.848;2023-08-21T02:01:00;6.45;;;5.85;;
21424;SDS011;10873;51.132;16.848;2023-08-21T02:03:26;6.18;;;5.68;;
21424;SDS011;10873;51.132;16.848;2023-08-21T02:05:55;6.50;;;5.90;;
21424;SDS011;10873;51.132;16.848;2023-08-21T02:08:22;6.57;;;5.85;;
21424;SDS011;10873;51.132;16.848;2023-08-21T02:10:48;6.75;;;5.90;;
21424;SDS011;10873;51.132;16.848;2023-08-21T02:13:15;6.25;;;5.65;;
21424;SDS011;10873;51.132;16.848;2023-08-21T02:15:42;6.82;;;6.13;;
21424;SDS011;10873;51.132;16.848;2023-08-21T02:18:08;6.72;;;6.13;;
21424;SDS011;10873;51.132;16.848;2023-08-21T02:20:34;6.93;;;6.22;;
21424;SDS011;10873;51.132;16.848;2023-08-21T02:23:01;7.40;;;6.47;;
21424;SDS011;10873;51.132;16.848;2023-08-21T02:25:27;6.97;;;6.20;;
21424;SDS011;10873;51.132;16.848;2023-08-21T02:27:54;6.10;;;5.60;;
21424;SDS011;10873;51.132;16.848;2023-08-21T02:30:20;6.90;;;5.90;;
21424;SDS011;10873;51.132;16.848;2023-08-21T02:32:51;6.63;;;6.00;;
21424;SDS011;10873;51.132;16.848;2023-08-21T02:35:17;6.47;;;5.88;;
21424;SDS011;10873;51.132;16.848;2023-08-21T02:37:44;6.30;;;5.80;;
21424;SDS011;10873;51.132;16.848;2023-08-21T02:40:10;6.72;;;5.75;;
21424;SDS011;10873;51.132;16.848;2023-08-21T02:42:36;6.97;;;6.22;;
21424;SDS011;10873;51.132;16.848;2023-08-21T02:56:56;6.10;;;5.50;;
21424;SDS011;10873;51.132;16.848;2023-08-21T02:59:22;6.30;;;5.50;;
21424;SDS011;10873;51.132;16.848;2023-08-21T03:01:48;6.63;;;5.45;;
21424;SDS011;10873;51.132;16.848;2023-08-21T03:04:14;6.88;;;5.40;;
21424;SDS011;10873;51.132;16.848;2023-08-21T03:06:40;5.88;;;5.28;;
21424;SDS011;10873;51.132;16.848;2023-08-21T03:09:06;6.63;;;5.97;;
21424;SDS011;10873;51.132;16.848;2023-08-21T03:11:32;6.20;;;5.60;;
21424;SDS011;10873;51.132;16.848;2023-08-21T03:14:00;6.15;;;5.55;;
21424;SDS011;10873;51.132;16.848;2023-08-21T03:16:26;6.65;;;5.57;;
21424;SDS011;10873;51.132;16.848;2023-08-21T03:18:56;7.55;;;5.50;;
21424;SDS011;10873;51.132;16.848;2023-08-21T03:21:23;6.22;;;5.63;;
21424;SDS011;10873;51.132;16.848;2023-08-21T03:23:50;5.88;;;5.28;;
21424;SDS011;10873;51.132;16.848;2023-08-21T03:26:17;6.13;;;5.53;;
21424;SDS011;10873;51.132;16.848;2023-08-21T03:28:43;9.18;;;5.53;;
21424;SDS011;10873;51.132;16.848;2023-08-21T03:31:10;6.53;;;5.72;;
21424;SDS011;10873;51.132;16.848;2023-08-21T03:33:36;6.38;;;5.88;;
21424;SDS011;10873;51.132;16.848;2023-08-21T03:36:02;6.78;;;6.07;;
21424;SDS011;10873;51.132;16.848;2023-08-21T03:38:29;5.68;;;5.18;;
21424;SDS011;10873;51.132;16.848;2023-08-21T03:40:55;6.40;;;5.78;;
21424;SDS011;10873;51.132;16.848;2023-08-21T03:43:21;6.60;;;5.90;;
21424;SDS011;10873;51.132;16.848;2023-08-21T03:45:47;6.50;;;5.90;;
21424;SDS011;10873;51.132;16.848;2023-08-21T03:48:14;6.43;;;5.70;;
21424;SDS011;10873;51.132;16.848;2023-08-21T03:50:40;7.70;;;5.93;;
21424;SDS011;10873;51.132;16.848;2023-08-21T03:53:07;7.40;;;6.68;;
21424;SDS011;10873;51.132;16.848;2023-08-21T03:55:33;8.13;;;6.60;;
21424;SDS011;10873;51.132;16.848;2023-08-21T03:57:59;9.23;;;6.75;;
21424;SDS011;10873;51.132;16.848;2023-08-21T04:00:26;6.68;;;6.07;;
21424;SDS011;10873;51.132;16.848;2023-08-21T04:02:52;6.90;;;6.07;;
21424;SDS011;10873;51.132;16.848;2023-08-21T04:05:19;7.32;;;6.10;;
21424;SDS011;10873;51.132;16.848;2023-08-21T04:07:45;6.57;;;5.95;;
21424;SDS011;10873;51.132;16.848;2023-08-21T04:10:11;7.10;;;6.32;;
21424;SDS011;10873;51.132;16.848;2023-08-21T04:12:37;8.32;;;6.45;;
21424;SDS011;10873;51.132;16.848;2023-08-21T04:15:03;6.50;;;5.90;;
21424;SDS011;10873;51.132;16.848;2023-08-21T04:17:31;6.57;;;5.85;;
21424;SDS011;10873;51.132;16.848;2023-08-21T04:19:57;7.63;;;6.30;;
21424;SDS011;10873;51.132;16.848;2023-08-21T04:22:25;6.53;;;5.93;;
21424;SDS011;10873;51.132;16.848;2023-08-21T04:24:51;6.75;;;6.10;;
21424;SDS011;10873;51.132;16.848;2023-08-21T04:27:17;6.97;;;6.20;;
21424;SDS011;10873;51.132;16.848;2023-08-21T04:29:42;9.55;;;6.55;;
21424;SDS011;10873;51.132;16.848;2023-08-21T04:32:09;6.65;;;5.95;;
21424;SDS011;10873;51.132;16.848;2023-08-21T04:34:35;7.68;;;6.03;;
21424;SDS011;10873;51.132;16.848;2023-08-21T04:37:01;7.07;;;6.38;;
21424;SDS011;10873;51.132;16.848;2023-08-21T04:39:28;6.63;;;5.93;;
21424;SDS011;10873;51.132;16.848;2023-08-21T04:41:54;6.70;;;5.95;;
21424;SDS011;10873;51.132;16.848;2023-08-21T04:44:20;7.05;;;6.35;;
21424;SDS011;10873;51.132;16.848;2023-08-21T04:46:47;7.00;;;6.10;;
21424;SDS011;10873;51.132;16.848;2023-08-21T04:49:15;7.13;;;6.43;;
21424;SDS011;10873;51.132;16.848;2023-08-21T04:51:42;7.03;;;5.93;;
21424;SDS011;10873;51.132;16.848;2023-08-21T04:54:08;6.65;;;5.95;;
21424;SDS011;10873;51.132;16.848;2023-08-21T04:56:35;6.25;;;5.30;;
21424;SDS011;10873;51.132;16.848;2023-08-21T04:59:01;7.43;;;6.10;;
21424;SDS011;10873;51.132;16.848;2023-08-21T05:01:28;8.45;;;5.90;;
21424;SDS011;10873;51.132;16.848;2023-08-21T05:03:54;16.65;;;6.75;;
21424;SDS011;10873;51.132;16.848;2023-08-21T05:06:21;13.38;;;6.70;;
21424;SDS011;10873;51.132;16.848;2023-08-21T05:08:47;13.60;;;6.10;;
21424;SDS011;10873;51.132;16.848;2023-08-21T05:11:13;10.05;;;5.70;;
21424;SDS011;10873;51.132;16.848;2023-08-21T05:13:40;10.30;;;5.57;;
21424;SDS011;10873;51.132;16.848;2023-08-21T05:16:06;11.48;;;5.50;;
21424;SDS011;10873;51.132;16.848;2023-08-21T05:18:32;8.23;;;5.20;;
21424;SDS011;10873;51.132;16.848;2023-08-21T05:20:58;10.85;;;4.85;;
21424;SDS011;10873;51.132;16.848;2023-08-21T05:23:24;5.70;;;4.40;;
21424;SDS011;10873;51.132;16.848;2023-08-21T05:25:50;7.28;;;4.68;;
21424;SDS011;10873;51.132;16.848;2023-08-21T05:28:16;5.10;;;3.95;;
21424;SDS011;10873;51.132;16.848;2023-08-21T05:30:46;6.60;;;4.18;;
21424;SDS011;10873;51.132;16.848;2023-08-21T05:33:12;8.70;;;4.85;;
21424;SDS011;10873;51.132;16.848;2023-08-21T05:35:38;6.28;;;3.97;;
21424;SDS011;10873;51.132;16.848;2023-08-21T05:38:05;7.78;;;4.13;;
21424;SDS011;10873;51.132;16.848;2023-08-21T05:40:31;5.25;;;3.95;;
21424;SDS011;10873;51.132;16.848;2023-08-21T05:42:57;5.00;;;4.03;;
21424;SDS011;10873;51.132;16.848;2023-08-21T05:45:24;5.90;;;3.88;;
21424;SDS011;10873;51.132;16.848;2023-08-21T05:47:51;6.97;;;3.75;;
21424;SDS011;10873;51.132;16.848;2023-08-21T05:50:17;6.05;;;4.20;;
21424;SDS011;10873;51.132;16.848;2023-08-21T05:52:43;6.75;;;4.20;;
21424;SDS011;10873;51.132;16.848;2023-08-21T05:55:09;8.05;;;3.97;;
21424;SDS011;10873;51.132;16.848;2023-08-21T05:57:36;5.82;;;4.03;;
21424;SDS011;10873;51.132;16.848;2023-08-21T06:00:03;5.82;;;4.10;;
21424;SDS011;10873;51.132;16.848;2023-08-21T06:02:33;5.72;;;4.22;;
21424;SDS011;10873;51.132;16.848;2023-08-21T06:05:01;7.90;;;4.47;;
21424;SDS011;10873;51.132;16.848;2023-08-21T06:07:28;8.60;;;4.60;;
21424;SDS011;10873;51.132;16.848;2023-08-21T06:09:54;6.13;;;3.90;;
21424;SDS011;10873;51.132;16.848;2023-08-21T06:12:20;7.57;;;4.18;;
21424;SDS011;10873;51.132;16.848;2023-08-21T06:14:46;8.45;;;4.72;;
21424;SDS011;10873;51.132;16.848;2023-08-21T06:17:12;7.47;;;4.50;;
21424;SDS011;10873;51.132;16.848;2023-08-21T06:19:38;8.02;;;4.75;;
21424;SDS011;10873;51.132;16.848;2023-08-21T06:22:06;9.02;;;5.03;;
21424;SDS011;10873;51.132;16.848;2023-08-21T06:24:33;7.65;;;4.68;;
21424;SDS011;10873;51.132;16.848;2023-08-21T06:26:59;4.78;;;4.28;;
21424;SDS011;10873;51.132;16.848;2023-08-21T06:29:25;8.02;;;4.72;;
21424;SDS011;10873;51.132;16.848;2023-08-21T06:31:51;5.72;;;4.68;;
21424;SDS011;10873;51.132;16.848;2023-08-21T06:34:17;7.00;;;5.25;;
21424;SDS011;10873;51.132;16.848;2023-08-21T06:36:43;6.40;;;4.72;;
21424;SDS011;10873;51.132;16.848;2023-08-21T06:39:10;7.32;;;4.35;;
21424;SDS011;10873;51.132;16.848;2023-08-21T06:41:36;5.53;;;4.32;;
21424;SDS011;10873;51.132;16.848;2023-08-21T06:44:02;5.53;;;4.30;;
21424;SDS011;10873;51.132;16.848;2023-08-21T06:46:29;6.85;;;4.55;;
21424;SDS011;10873;51.132;16.848;2023-08-21T06:48:55;5.57;;;4.43;;
21424;SDS011;10873;51.132;16.848;2023-08-21T06:51:21;4.53;;;4.13;;
21424;SDS011;10873;51.132;16.848;2023-08-21T06:53:47;7.20;;;4.20;;
21424;SDS011;10873;51.132;16.848;2023-08-21T06:56:14;5.60;;;4.22;;
21424;SDS011;10873;51.132;16.848;2023-08-21T06:58:41;5.80;;;4.30;;
21424;SDS011;10873;51.132;16.848;2023-08-21T07:01:07;7.20;;;4.47;;
21424;SDS011;10873;51.132;16.848;2023-08-21T07:03:33;5.78;;;4.43;;
21424;SDS011;10873;51.132;16.848;2023-08-21T07:05:59;5.70;;;4.28;;
21424;SDS011;10873;51.132;16.848;2023-08-21T07:08:26;8.52;;;4.68;;
21424;SDS011;10873;51.132;16.848;2023-08-21T07:10:52;6.85;;;4.40;;
21424;SDS011;10873;51.132;16.848;2023-08-21T07:13:20;6.90;;;4.50;;
21424;SDS011;10873;51.132;16.848;2023-08-21T07:15:46;9.73;;;5.00;;
21424;SDS011;10873;51.132;16.848;2023-08-21T07:18:13;5.40;;;4.15;;
21424;SDS011;10873;51.132;16.848;2023-08-21T07:20:39;5.95;;;4.32;;
21424;SDS011;10873;51.132;16.848;2023-08-21T07:23:06;5.65;;;4.25;;
21424;SDS011;10873;51.132;16.848;2023-08-21T07:25:31;7.35;;;4.70;;
21424;SDS011;10873;51.132;16.848;2023-08-21T07:27:58;6.45;;;4.13;;
21424;SDS011;10873;51.132;16.848;2023-08-21T07:30:25;6.63;;;4.38;;
21424;SDS011;10873;51.132;16.848;2023-08-21T07:32:52;6.38;;;4.45;;
21424;SDS011;10873;51.132;16.848;2023-08-21T07:35:18;8.25;;;5.53;;
21424;SDS011;10873;51.132;16.848;2023-08-21T07:37:46;11.38;;;4.90;;
21424;SDS011;10873;51.132;16.848;2023-08-21T07:40:12;5.22;;;4.63;;
21424;SDS011;10873;51.132;16.848;2023-08-21T07:42:38;6.97;;;4.97;;
21424;SDS011;10873;51.132;16.848;2023-08-21T07:45:04;6.68;;;4.05;;
21424;SDS011;10873;51.132;16.848;2023-08-21T07:47:33;6.07;;;4.55;;
21424;SDS011;10873;51.132;16.848;2023-08-21T07:49:58;6.38;;;4.28;;
21424;SDS011;10873;51.132;16.848;2023-08-21T07:52:25;8.75;;;4.10;;
21424;SDS011;10873;51.132;16.848;2023-08-21T07:54:51;5.78;;;3.75;;
21424;SDS011;10873;51.132;16.848;2023-08-21T07:57:18;5.35;;;3.53;;
21424;SDS011;10873;51.132;16.848;2023-08-21T07:59:44;5.68;;;3.55;;
21424;SDS011;10873;51.132;16.848;2023-08-21T08:02:10;4.00;;;3.30;;
21424;SDS011;10873;51.132;16.848;2023-08-21T08:04:39;4.13;;;2.78;;
21424;SDS011;10873;51.132;16.848;2023-08-21T08:07:05;5.82;;;3.00;;
21424;SDS011;10873;51.132;16.848;2023-08-21T08:09:31;3.40;;;2.83;;
21424;SDS011;10873;51.132;16.848;2023-08-21T08:11:57;4.32;;;3.00;;
21424;SDS011;10873;51.132;16.848;2023-08-21T08:14:23;3.88;;;2.53;;
21424;SDS011;10873;51.132;16.848;2023-08-21T08:16:49;5.30;;;3.08;;
21424;SDS011;10873;51.132;16.848;2023-08-21T08:19:15;5.25;;;3.38;;
21424;SDS011;10873;51.132;16.848;2023-08-21T08:21:42;6.15;;;2.80;;
21424;SDS011;10873;51.132;16.848;2023-08-21T08:24:08;4.45;;;2.63;;
21424;SDS011;10873;51.132;16.848;2023-08-21T08:26:35;5.53;;;2.63;;
21424;SDS011;10873;51.132;16.848;2023-08-21T08:29:01;5.30;;;2.65;;
21424;SDS011;10873;51.132;16.848;2023-08-21T08:31:27;6.22;;;2.75;;
21424;SDS011;10873;51.132;16.848;2023-08-21T08:33:53;3.03;;;2.42;;
21424;SDS011;10873;51.132;16.848;2023-08-21T08:36:19;2.67;;;2.22;;
21424;SDS011;10873;51.132;16.848;2023-08-21T08:38:46;3.42;;;2.42;;
21424;SDS011;10873;51.132;16.848;2023-08-21T08:41:14;4.10;;;2.55;;
21424;SDS011;10873;51.132;16.848;2023-08-21T08:43:50;9.27;;;2.50;;
21424;SDS011;10873;51.132;16.848;2023-08-21T08:46:17;7.43;;;2.53;;
21424;SDS011;10873;51.132;16.848;2023-08-21T08:48:43;6.13;;;2.72;;
21424;SDS011;10873;51.132;16.848;2023-08-21T08:51:09;6.43;;;2.22;;
21424;SDS011;10873;51.132;16.848;2023-08-21T08:53:36;6.20;;;2.20;;
21424;SDS011;10873;51.132;16.848;2023-08-21T08:56:04;5.68;;;2.75;;
21424;SDS011;10873;51.132;16.848;2023-08-21T08:58:30;6.85;;;2.55;;
21424;SDS011;10873;51.132;16.848;2023-08-21T09:00:56;12.07;;;2.85;;
21424;SDS011;10873;51.132;16.848;2023-08-21T09:03:22;5.65;;;2.95;;
21424;SDS011;10873;51.132;16.848;2023-08-21T09:05:48;4.43;;;2.50;;
21424;SDS011;10873;51.132;16.848;2023-08-21T09:08:15;5.30;;;2.50;;
21424;SDS011;10873;51.132;16.848;2023-08-21T09:10:41;9.13;;;2.80;;
21424;SDS011;10873;51.132;16.848;2023-08-21T09:13:10;6.13;;;2.70;;
21424;SDS011;10873;51.132;16.848;2023-08-21T09:15:37;4.55;;;2.55;;
21424;SDS011;10873;51.132;16.848;2023-08-21T09:18:03;3.42;;;2.28;;
21424;SDS011;10873;51.132;16.848;2023-08-21T09:20:34;5.30;;;2.25;;
21424;SDS011;10873;51.132;16.848;2023-08-21T09:23:00;4.47;;;2.60;;
21424;SDS011;10873;51.132;16.848;2023-08-21T09:25:26;4.03;;;2.35;;
21424;SDS011;10873;51.132;16.848;2023-08-21T09:27:52;5.10;;;2.83;;
21424;SDS011;10873;51.132;16.848;2023-08-21T09:30:20;6.22;;;2.75;;
21424;SDS011;10873;51.132;16.848;2023-08-21T09:32:53;4.00;;;2.78;;
21424;SDS011;10873;51.132;16.848;2023-08-21T09:35:20;4.65;;;2.45;;
21424;SDS011;10873;51.132;16.848;2023-08-21T09:37:47;5.65;;;2.78;;
21424;SDS011;10873;51.132;16.848;2023-08-21T09:40:13;3.10;;;2.47;;
21424;SDS011;10873;51.132;16.848;2023-08-21T09:42:40;4.53;;;2.58;;
21424;SDS011;10873;51.132;16.848;2023-08-21T09:45:07;4.78;;;3.00;;
21424;SDS011;10873;51.132;16.848;2023-08-21T09:47:34;4.40;;;2.67;;
21424;SDS011;10873;51.132;16.848;2023-08-21T09:50:01;6.40;;;2.90;;
21424;SDS011;10873;51.132;16.848;2023-08-21T09:52:28;4.22;;;2.80;;
21424;SDS011;10873;51.132;16.848;2023-08-21T10:21:11;4.13;;;2.58;;
21424;SDS011;10873;51.132;16.848;2023-08-21T10:23:38;6.70;;;2.75;;
21424;SDS011;10873;51.132;16.848;2023-08-21T10:26:06;3.90;;;2.20;;
21424;SDS011;10873;51.132;16.848;2023-08-21T10:34:09;3.53;;;2.30;;
21424;SDS011;10873;51.132;16.848;2023-08-21T10:39:31;3.22;;;2.42;;
21424;SDS011;10873;51.132;16.848;2023-08-21T10:42:00;2.70;;;2.25;;
21424;SDS011;10873;51.132;16.848;2023-08-21T10:44:36;4.30;;;2.50;;
21424;SDS011;10873;51.132;16.848;2023-08-21T10:47:17;10.57;;;2.35;;
21424;SDS011;10873;51.132;16.848;2023-08-21T10:49:45;10.13;;;2.85;;
21424;SDS011;10873;51.132;16.848;2023-08-21T10:52:13;14.05;;;2.78;;
21424;SDS011;10873;51.132;16.848;2023-08-21T10:54:46;15.10;;;2.78;;
21424;SDS011;10873;51.132;16.848;2023-08-21T10:57:13;15.50;;;3.30;;
21424;SDS011;10873;51.132;16.848;2023-08-21T10:59:48;12.32;;;3.15;;
21424;SDS011;10873;51.132;16.848;2023-08-21T11:02:15;13.32;;;3.03;;
21424;SDS011;10873;51.132;16.848;2023-08-21T11:04:41;14.48;;;2.75;;
21424;SDS011;10873;51.132;16.848;2023-08-21T11:07:09;9.45;;;3.10;;
21424;SDS011;10873;51.132;16.848;2023-08-21T11:09:37;11.93;;;2.88;;
21424;SDS011;10873;51.132;16.848;2023-08-21T11:12:05;12.05;;;3.13;;
21424;SDS011;10873;51.132;16.848;2023-08-21T11:14:32;9.63;;;2.95;;
21424;SDS011;10873;51.132;16.848;2023-08-21T11:16:59;12.20;;;3.05;;
21424;SDS011;10873;51.132;16.848;2023-08-21T11:19:25;12.20;;;3.28;;
21424;SDS011;10873;51.132;16.848;2023-08-21T11:21:51;10.57;;;2.72;;
21424;SDS011;10873;51.132;16.848;2023-08-21T11:24:17;10.15;;;2.60;;
21424;SDS011;10873;51.132;16.848;2023-08-21T11:26:45;8.63;;;2.80;;
21424;SDS011;10873;51.132;16.848;2023-08-21T11:29:11;7.63;;;2.50;;
21424;SDS011;10873;51.132;16.848;2023-08-21T11:31:37;6.32;;;2.45;;
21424;SDS011;10873;51.132;16.848;2023-08-21T11:34:04;9.05;;;2.75;;
21424;SDS011;10873;51.132;16.848;2023-08-21T11:36:29;7.40;;;2.80;;
21424;SDS011;10873;51.132;16.848;2023-08-21T11:38:59;5.22;;;2.50;;
21424;SDS011;10873;51.132;16.848;2023-08-21T11:41:25;7.35;;;2.42;;
21424;SDS011;10873;51.132;16.848;2023-08-21T11:43:53;6.07;;;2.50;;
21424;SDS011;10873;51.132;16.848;2023-08-21T11:46:27;9.32;;;2.65;;
21424;SDS011;10873;51.132;16.848;2023-08-21T11:48:53;7.03;;;2.92;;
21424;SDS011;10873;51.132;16.848;2023-08-21T11:51:19;8.52;;;2.67;;
21424;SDS011;10873;51.132;16.848;2023-08-21T11:53:47;9.68;;;3.10;;
21424;SDS011;10873;51.132;16.848;2023-08-21T11:56:16;5.20;;;2.50;;
21424;SDS011;10873;51.132;16.848;2023-08-21T11:58:43;5.95;;;2.22;;
21424;SDS011;10873;51.132;16.848;2023-08-21T12:01:12;7.63;;;3.30;;
21424;SDS011;10873;51.132;16.848;2023-08-21T12:03:43;4.03;;;2.33;;
21424;SDS011;10873;51.132;16.848;2023-08-21T12:06:17;7.63;;;2.83;;
21424;SDS011;10873;51.132;16.848;2023-08-21T12:08:47;7.95;;;2.33;;
21424;SDS011;10873;51.132;16.848;2023-08-21T12:11:13;6.47;;;2.83;;
21424;SDS011;10873;51.132;16.848;2023-08-21T12:13:43;6.30;;;2.60;;
21424;SDS011;10873;51.132;16.848;2023-08-21T12:16:26;7.13;;;2.50;;
21424;SDS011;10873;51.132;16.848;2023-08-21T12:19:25;4.75;;;2.38;;
21424;SDS011;10873;51.132;16.848;2023-08-21T12:22:15;5.00;;;2.50;;
21424;SDS011;10873;51.132;16.848;2023-08-21T12:24:42;4.57;;;2.50;;
21424;SDS011;10873;51.132;16.848;2023-08-21T12:27:08;5.60;;;2.35;;
21424;SDS011;10873;51.132;16.848;2023-08-21T12:29:34;4.07;;;2.50;;
21424;SDS011;10873;51.132;16.848;2023-08-21T12:32:01;9.70;;;2.70;;
21424;SDS011;10873;51.132;16.848;2023-08-21T12:34:30;6.82;;;2.58;;
21424;SDS011;10873;51.132;16.848;2023-08-21T12:36:56;4.95;;;2.58;;
21424;SDS011;10873;51.132;16.848;2023-08-21T12:39:22;6.28;;;2.88;;
21424;SDS011;10873;51.132;16.848;2023-08-21T12:41:48;5.15;;;2.83;;
21424;SDS011;10873;51.132;16.848;2023-08-21T12:44:14;6.07;;;2.38;;
21424;SDS011;10873;51.132;16.848;2023-08-21T12:46:40;5.30;;;2.53;;
21424;SDS011;10873;51.132;16.848;2023-08-21T12:49:11;3.88;;;2.63;;
21424;SDS011;10873;51.132;16.848;2023-08-21T12:51:37;2.88;;;2.50;;
21424;SDS011;10873;51.132;16.848;2023-08-21T12:54:04;5.95;;;2.38;;
21424;SDS011;10873;51.132;16.848;2023-08-21T12:56:30;5.28;;;2.72;;
21424;SDS011;10873;51.132;16.848;2023-08-21T12:58:56;3.72;;;1.98;;
21424;SDS011;10873;51.132;16.848;2023-08-21T13:01:22;4.05;;;2.55;;
21424;SDS011;10873;51.132;16.848;2023-08-21T13:03:48;5.38;;;2.65;;
21424;SDS011;10873;51.132;16.848;2023-08-21T13:06:16;6.43;;;2.58;;
21424;SDS011;10873;51.132;16.848;2023-08-21T13:08:42;6.65;;;2.72;;
21424;SDS011;10873;51.132;16.848;2023-08-21T13:11:08;6.38;;;2.60;;
21424;SDS011;10873;51.132;16.848;2023-08-21T13:13:35;4.85;;;2.30;;
21424;SDS011;10873;51.132;16.848;2023-08-21T13:16:01;6.70;;;2.80;;
21424;SDS011;10873;51.132;16.848;2023-08-21T13:18:29;3.88;;;2.20;;
21424;SDS011;10873;51.132;16.848;2023-08-21T13:20:54;5.65;;;2.60;;
21424;SDS011;10873;51.132;16.848;2023-08-21T13:23:22;4.07;;;2.42;;
21424;SDS011;10873;51.132;16.848;2023-08-21T13:25:48;4.50;;;2.45;;
21424;SDS011;10873;51.132;16.848;2023-08-21T13:28:14;6.15;;;2.55;;
21424;SDS011;10873;51.132;16.848;2023-08-21T13:30:40;5.68;;;2.35;;
21424;SDS011;10873;51.132;16.848;2023-08-21T13:33:06;4.68;;;2.60;;
21424;SDS011;10873;51.132;16.848;2023-08-21T13:35:32;3.60;;;2.30;;
21424;SDS011;10873;51.132;16.848;2023-08-21T13:37:59;5.95;;;2.70;;
21424;SDS011;10873;51.132;16.848;2023-08-21T13:40:26;3.88;;;2.17;;
21424;SDS011;10873;51.132;16.848;2023-08-21T13:42:52;7.45;;;2.50;;
21424;SDS011;10873;51.132;16.848;2023-08-21T13:45:19;6.38;;;2.67;;
21424;SDS011;10873;51.132;16.848;2023-08-21T13:47:46;4.00;;;2.35;;
21424;SDS011;10873;51.132;16.848;2023-08-21T13:50:13;6.45;;;2.42;;
21424;SDS011;10873;51.132;16.848;2023-08-21T13:52:41;5.57;;;2.60;;
21424;SDS011;10873;51.132;16.848;2023-08-21T13:55:07;5.28;;;2.58;;
21424;SDS011;10873;51.132;16.848;2023-08-21T13:57:35;4.97;;;2.63;;
21424;SDS011;10873;51.132;16.848;2023-08-21T14:00:02;6.95;;;2.88;;
21424;SDS011;10873;51.132;16.848;2023-08-21T14:02:33;5.55;;;3.05;;
21424;SDS011;10873;51.132;16.848;2023-08-21T14:04:59;5.70;;;3.05;;
21424;SDS011;10873;51.132;16.848;2023-08-21T14:07:26;5.75;;;3.88;;
21424;SDS011;10873;51.132;16.848;2023-08-21T14:09:51;5.57;;;3.67;;
21424;SDS011;10873;51.132;16.848;2023-08-21T14:12:18;6.53;;;3.85;;
21424;SDS011;10873;51.132;16.848;2023-08-21T14:14:45;4.68;;;3.33;;
21424;SDS011;10873;51.132;16.848;2023-08-21T14:17:11;6.55;;;3.47;;
21424;SDS011;10873;51.132;16.848;2023-08-21T14:19:37;6.55;;;3.40;;
21424;SDS011;10873;51.132;16.848;2023-08-21T14:22:04;6.40;;;3.90;;
21424;SDS011;10873;51.132;16.848;2023-08-21T14:24:30;9.65;;;4.10;;
21424;SDS011;10873;51.132;16.848;2023-08-21T14:26:56;10.98;;;4.10;;
21424;SDS011;10873;51.132;16.848;2023-08-21T14:29:22;6.13;;;3.80;;
21424;SDS011;10873;51.132;16.848;2023-08-21T14:31:49;7.28;;;4.05;;
21424;SDS011;10873;51.132;16.848;2023-08-21T14:34:18;8.73;;;4.20;;
21424;SDS011;10873;51.132;16.848;2023-08-21T14:36:45;7.70;;;4.35;;
21424;SDS011;10873;51.132;16.848;2023-08-21T14:39:13;7.38;;;3.78;;
21424;SDS011;10873;51.132;16.848;2023-08-21T14:41:40;6.78;;;3.53;;
21424;SDS011;10873;51.132;16.848;2023-08-21T14:44:06;6.82;;;3.65;;
21424;SDS011;10873;51.132;16.848;2023-08-21T14:46:33;7.85;;;4.03;;
21424;SDS011;10873;51.132;16.848;2023-08-21T14:49:00;7.15;;;3.67;;
21424;SDS011;10873;51.132;16.848;2023-08-21T14:51:27;7.13;;;3.85;;
21424;SDS011;10873;51.132;16.848;2023-08-21T14:53:53;7.05;;;3.90;;
21424;SDS011;10873;51.132;16.848;2023-08-21T14:56:19;6.68;;;3.67;;
21424;SDS011;10873;51.132;16.848;2023-08-21T14:58:45;6.35;;;4.05;;
21424;SDS011;10873;51.132;16.848;2023-08-21T15:01:11;8.02;;;3.70;;
21424;SDS011;10873;51.132;16.848;2023-08-21T15:03:37;5.85;;;3.65;;
21424;SDS011;10873;51.132;16.848;2023-08-21T15:06:05;7.25;;;3.53;;
21424;SDS011;10873;51.132;16.848;2023-08-21T15:08:31;5.82;;;3.63;;
21424;SDS011;10873;51.132;16.848;2023-08-21T15:10:57;5.88;;;3.72;;
21424;SDS011;10873;51.132;16.848;2023-08-21T15:13:23;5.88;;;3.47;;
21424;SDS011;10873;51.132;16.848;2023-08-21T15:15:49;9.85;;;3.67;;
21424;SDS011;10873;51.132;16.848;2023-08-21T15:18:15;8.98;;;3.33;;